sensor_id;sensor_type;location;lat;lon;timestamp;temperature;humidity
20512;DHT22;10414;52.074;5.126;2023-03-01T00:01:01;1.90;99.90
20512;DHT22;10414;52.074;5.126;2023-03-01T00:03:28;2.00;99.90
20512;DHT22;10414;52.074;5.126;2023-03-01T00:05:55;2.00;99.90
20512;DHT22;10414;52.074;5.126;2023-03-01T00:08:22;1.70;99.90
20512;DHT22;10414;52.074;5.126;2023-03-01T00:11:00;1.70;99.90
20512;DHT22;10414;52.074;5.126;2023-03-01T00:13:26;1.70;99.90
20512;DHT22;10414;52.074;5.126;2023-03-01T00:15:53;1.70;99.90
20512;DHT22;10414;52.074;5.126;2023-03-01T00:18:20;1.60;99.90
20512;DHT22;10414;52.074;5.126;2023-03-01T00:20:50;1.70;99.90
20512;DHT22;10414;52.074;5.126;2023-03-01T00:23:17;1.60;99.90
20512;DHT22;10414;52.074;5.126;2023-03-01T00:25:44;1.60;99.90
20512;DHT22;10414;52.074;5.126;2023-03-01T00:28:12;1.60;99.90
20512;DHT22;10414;52.074;5.126;2023-03-01T00:30:39;1.70;99.90
20512;DHT22;10414;52.074;5.126;2023-03-01T00:33:06;2.00;99.90
20512;DHT22;10414;52.074;5.126;2023-03-01T00:35:34;2.00;99.90
20512;DHT22;10414;52.074;5.126;2023-03-01T00:38:01;2.10;99.90
20512;DHT22;10414;52.074;5.126;2023-03-01T00:40:28;2.20;99.90
20512;DHT22;10414;52.074;5.126;2023-03-01T00:42:56;2.10;99.90
20512;DHT22;10414;52.074;5.126;2023-03-01T00:45:24;2.00;99.90
20512;DHT22;10414;52.074;5.126;2023-03-01T00:47:51;2.00;99.90
20512;DHT22;10414;52.074;5.126;2023-03-01T00:50:19;2.10;99.90
20512;DHT22;10414;52.074;5.126;2023-03-01T00:52:46;2.10;99.90
20512;DHT22;10414;52.074;5.126;2023-03-01T00:55:13;2.00;99.90
20512;DHT22;10414;52.074;5.126;2023-03-01T00:57:40;1.90;99.90
20512;DHT22;10414;52.074;5.126;2023-03-01T01:00:08;1.70;99.90
20512;DHT22;10414;52.074;5.126;2023-03-01T01:02:38;1.50;99.90
20512;DHT22;10414;52.074;5.126;2023-03-01T01:05:05;1.50;99.90
20512;DHT22;10414;52.074;5.126;2023-03-01T01:07:32;1.60;99.90
20512;DHT22;10414;52.074;5.126;2023-03-01T01:09:59;1.60;99.90
20512;DHT22;10414;52.074;5.126;2023-03-01T01:12:26;1.60;99.90
20512;DHT22;10414;52.074;5.126;2023-03-01T01:14:53;1.50;99.90
20512;DHT22;10414;52.074;5.126;2023-03-01T01:17:20;1.60;99.90
20512;DHT22;10414;52.074;5.126;2023-03-01T01:19:48;1.60;99.90
20512;DHT22;10414;52.074;5.126;2023-03-01T01:22:15;1.40;99.90
20512;DHT22;10414;52.074;5.126;2023-03-01T01:24:42;1.30;99.90
20512;DHT22;10414;52.074;5.126;2023-03-01T01:27:09;1.40;99.90
20512;DHT22;10414;52.074;5.126;2023-03-01T01:29:36;1.50;99.90
20512;DHT22;10414;52.074;5.126;2023-03-01T01:32:03;1.40;99.90
20512;DHT22;10414;52.074;5.126;2023-03-01T01:34:30;1.40;99.90
20512;DHT22;10414;52.074;5.126;2023-03-01T01:36:58;1.40;99.90
20512;DHT22;10414;52.074;5.126;2023-03-01T01:39:28;1.30;99.90
20512;DHT22;10414;52.074;5.126;2023-03-01T01:41:55;1.30;99.90
20512;DHT22;10414;52.074;5.126;2023-03-01T01:44:24;1.20;99.90
20512;DHT22;10414;52.074;5.126;2023-03-01T01:46:54;1.40;99.90
20512;DHT22;10414;52.074;5.126;2023-03-01T01:49:27;1.60;99.90
20512;DHT22;10414;52.074;5.126;2023-03-01T01:52:02;1.40;99.90
20512;DHT22;10414;52.074;5.126;2023-03-01T01:54:34;1.50;99.90
20512;DHT22;10414;52.074;5.126;2023-03-01T01:57:06;1.50;99.90
20512;DHT22;10414;52.074;5.126;2023-03-01T01:59:35;1.40;99.90
20512;DHT22;10414;52.074;5.126;2023-03-01T02:02:03;1.40;99.90
20512;DHT22;10414;52.074;5.126;2023-03-01T02:04:31;1.50;99.90
20512;DHT22;10414;52.074;5.126;2023-03-01T02:07:03;1.40;99.90
20512;DHT22;10414;52.074;5.126;2023-03-01T02:09:33;1.50;99.90
20512;DHT22;10414;52.074;5.126;2023-03-01T02:12:01;1.40;99.90
20512;DHT22;10414;52.074;5.126;2023-03-01T02:14:28;1.40;99.90
20512;DHT22;10414;52.074;5.126;2023-03-01T02:16:55;1.40;99.90
20512;DHT22;10414;52.074;5.126;2023-03-01T02:19:32;1.30;99.90
20512;DHT22;10414;52.074;5.126;2023-03-01T02:22:10;1.20;99.90
20512;DHT22;10414;52.074;5.126;2023-03-01T02:24:43;1.20;99.90
20512;DHT22;10414;52.074;5.126;2023-03-01T02:27:14;1.10;99.90
20512;DHT22;10414;52.074;5.126;2023-03-01T02:29:43;0.80;99.90
20512;DHT22;10414;52.074;5.126;2023-03-01T02:32:12;0.90;99.90
20512;DHT22;10414;52.074;5.126;2023-03-01T02:34:39;0.90;99.90
20512;DHT22;10414;52.074;5.126;2023-03-01T02:37:10;1.00;99.90
20512;DHT22;10414;52.074;5.126;2023-03-01T02:39:41;0.90;99.90
20512;DHT22;10414;52.074;5.126;2023-03-01T02:42:11;1.10;99.90
20512;DHT22;10414;52.074;5.126;2023-03-01T02:44:39;1.00;99.90
20512;DHT22;10414;52.074;5.126;2023-03-01T02:47:07;1.10;99.90
20512;DHT22;10414;52.074;5.126;2023-03-01T02:49:36;1.20;99.90
20512;DHT22;10414;52.074;5.126;2023-03-01T02:52:28;1.20;99.90
20512;DHT22;10414;52.074;5.126;2023-03-01T02:55:01;1.30;99.90
20512;DHT22;10414;52.074;5.126;2023-03-01T02:57:30;1.30;99.90
20512;DHT22;10414;52.074;5.126;2023-03-01T03:00:02;1.30;99.90
20512;DHT22;10414;52.074;5.126;2023-03-01T03:02:35;1.40;99.90
20512;DHT22;10414;52.074;5.126;2023-03-01T03:05:08;1.50;99.90
20512;DHT22;10414;52.074;5.126;2023-03-01T03:07:35;1.50;99.90
20512;DHT22;10414;52.074;5.126;2023-03-01T03:10:05;1.40;99.90
20512;DHT22;10414;52.074;5.126;2023-03-01T03:12:32;1.50;99.90
20512;DHT22;10414;52.074;5.126;2023-03-01T03:14:59;1.10;99.90
20512;DHT22;10414;52.074;5.126;2023-03-01T03:17:26;1.20;99.90
20512;DHT22;10414;52.074;5.126;2023-03-01T03:19:54;1.10;99.90
20512;DHT22;10414;52.074;5.126;2023-03-01T03:22:21;1.10;99.90
20512;DHT22;10414;52.074;5.126;2023-03-01T03:24:48;1.10;99.90
20512;DHT22;10414;52.074;5.126;2023-03-01T03:27:15;1.20;99.90
20512;DHT22;10414;52.074;5.126;2023-03-01T03:29:42;1.20;99.90
20512;DHT22;10414;52.074;5.126;2023-03-01T03:32:08;1.20;99.90
20512;DHT22;10414;52.074;5.126;2023-03-01T03:34:35;1.00;99.90
20512;DHT22;10414;52.074;5.126;2023-03-01T03:37:03;0.90;99.90
20512;DHT22;10414;52.074;5.126;2023-03-01T03:39:50;0.90;99.90
20512;DHT22;10414;52.074;5.126;2023-03-01T03:42:20;0.90;99.90
20512;DHT22;10414;52.074;5.126;2023-03-01T03:44:47;1.00;99.90
20512;DHT22;10414;52.074;5.126;2023-03-01T03:47:14;1.10;99.90
20512;DHT22;10414;52.074;5.126;2023-03-01T03:49:41;1.30;99.90
20512;DHT22;10414;52.074;5.126;2023-03-01T03:52:09;1.30;99.90
20512;DHT22;10414;52.074;5.126;2023-03-01T03:54:38;1.40;99.90
20512;DHT22;10414;52.074;5.126;2023-03-01T03:57:05;1.50;99.90
20512;DHT22;10414;52.074;5.126;2023-03-01T03:59:33;1.60;99.90
20512;DHT22;10414;52.074;5.126;2023-03-01T04:02:00;1.70;99.90
20512;DHT22;10414;52.074;5.126;2023-03-01T04:04:26;1.80;99.90
20512;DHT22;10414;52.074;5.126;2023-03-01T04:06:53;1.60;99.90
20512;DHT22;10414;52.074;5.126;2023-03-01T04:09:22;1.70;99.90
20512;DHT22;10414;52.074;5.126;2023-03-01T04:11:48;1.70;99.90
20512;DHT22;10414;52.074;5.126;2023-03-01T04:14:15;1.60;99.90
20512;DHT22;10414;52.074;5.126;2023-03-01T04:16:42;1.40;99.90
20512;DHT22;10414;52.074;5.126;2023-03-01T04:19:09;1.40;99.90
20512;DHT22;10414;52.074;5.126;2023-03-01T04:21:36;1.20;99.90
20512;DHT22;10414;52.074;5.126;2023-03-01T04:24:04;1.00;99.90
20512;DHT22;10414;52.074;5.126;2023-03-01T04:26:33;1.10;99.90
20512;DHT22;10414;52.074;5.126;2023-03-01T04:29:00;1.30;99.90
20512;DHT22;10414;52.074;5.126;2023-03-01T04:31:27;0.80;99.90
20512;DHT22;10414;52.074;5.126;2023-03-01T04:33:55;1.20;99.90
20512;DHT22;10414;52.074;5.126;2023-03-01T04:36:23;1.10;99.90
20512;DHT22;10414;52.074;5.126;2023-03-01T04:38:51;1.00;99.90
20512;DHT22;10414;52.074;5.126;2023-03-01T04:41:20;1.10;99.90
20512;DHT22;10414;52.074;5.126;2023-03-01T04:43:49;1.20;99.90
20512;DHT22;10414;52.074;5.126;2023-03-01T04:46:18;1.40;99.90
20512;DHT22;10414;52.074;5.126;2023-03-01T04:48:46;1.40;99.90
20512;DHT22;10414;52.074;5.126;2023-03-01T04:51:13;1.40;99.90
20512;DHT22;10414;52.074;5.126;2023-03-01T04:53:40;1.40;99.90
20512;DHT22;10414;52.074;5.126;2023-03-01T04:56:08;1.30;99.90
20512;DHT22;10414;52.074;5.126;2023-03-01T04:58:35;1.50;99.90
20512;DHT22;10414;52.074;5.126;2023-03-01T05:01:08;1.40;99.90
20512;DHT22;10414;52.074;5.126;2023-03-01T05:03:41;1.30;99.90
20512;DHT22;10414;52.074;5.126;2023-03-01T05:06:09;1.30;99.90
20512;DHT22;10414;52.074;5.126;2023-03-01T05:08:36;1.20;99.90
20512;DHT22;10414;52.074;5.126;2023-03-01T05:11:04;1.10;99.90
20512;DHT22;10414;52.074;5.126;2023-03-01T05:13:35;0.90;99.90
20512;DHT22;10414;52.074;5.126;2023-03-01T05:16:05;1.10;99.90
20512;DHT22;10414;52.074;5.126;2023-03-01T05:18:37;1.20;99.90
20512;DHT22;10414;52.074;5.126;2023-03-01T05:21:06;1.20;99.90
20512;DHT22;10414;52.074;5.126;2023-03-01T05:23:33;1.20;99.90
20512;DHT22;10414;52.074;5.126;2023-03-01T05:26:01;1.30;99.90
20512;DHT22;10414;52.074;5.126;2023-03-01T05:28:30;1.40;99.90
20512;DHT22;10414;52.074;5.126;2023-03-01T05:30:57;1.50;99.90
20512;DHT22;10414;52.074;5.126;2023-03-01T05:33:26;1.40;99.90
20512;DHT22;10414;52.074;5.126;2023-03-01T05:35:53;1.50;99.90
20512;DHT22;10414;52.074;5.126;2023-03-01T05:38:21;1.40;99.90
20512;DHT22;10414;52.074;5.126;2023-03-01T05:40:48;1.40;99.90
20512;DHT22;10414;52.074;5.126;2023-03-01T05:43:16;1.30;99.90
20512;DHT22;10414;52.074;5.126;2023-03-01T05:45:43;1.10;99.90
20512;DHT22;10414;52.074;5.126;2023-03-01T05:48:12;1.20;99.90
20512;DHT22;10414;52.074;5.126;2023-03-01T05:50:41;1.20;99.90
20512;DHT22;10414;52.074;5.126;2023-03-01T05:53:10;1.00;99.90
20512;DHT22;10414;52.074;5.126;2023-03-01T05:55:38;0.90;99.90
20512;DHT22;10414;52.074;5.126;2023-03-01T05:58:06;0.70;99.90
20512;DHT22;10414;52.074;5.126;2023-03-01T06:00:33;0.70;99.90
20512;DHT22;10414;52.074;5.126;2023-03-01T06:03:01;0.70;99.90
20512;DHT22;10414;52.074;5.126;2023-03-01T06:05:29;0.80;99.90
20512;DHT22;10414;52.074;5.126;2023-03-01T06:08:00;0.90;99.90
20512;DHT22;10414;52.074;5.126;2023-03-01T06:10:28;0.90;99.90
20512;DHT22;10414;52.074;5.126;2023-03-01T06:12:55;1.00;99.90
20512;DHT22;10414;52.074;5.126;2023-03-01T06:15:22;1.00;99.90
20512;DHT22;10414;52.074;5.126;2023-03-01T06:17:50;0.60;99.90
20512;DHT22;10414;52.074;5.126;2023-03-01T06:20:19;0.70;99.90
20512;DHT22;10414;52.074;5.126;2023-03-01T06:22:46;0.90;99.90
20512;DHT22;10414;52.074;5.126;2023-03-01T06:25:18;0.80;99.90
20512;DHT22;10414;52.074;5.126;2023-03-01T06:27:46;0.90;99.90
20512;DHT22;10414;52.074;5.126;2023-03-01T06:30:16;0.90;99.90
20512;DHT22;10414;52.074;5.126;2023-03-01T06:32:43;0.80;99.90
20512;DHT22;10414;52.074;5.126;2023-03-01T06:35:10;0.80;99.90
20512;DHT22;10414;52.074;5.126;2023-03-01T06:37:38;0.80;99.90
20512;DHT22;10414;52.074;5.126;2023-03-01T06:40:06;0.80;99.90
20512;DHT22;10414;52.074;5.126;2023-03-01T06:42:35;0.90;99.90
20512;DHT22;10414;52.074;5.126;2023-03-01T06:45:03;1.10;99.90
20512;DHT22;10414;52.074;5.126;2023-03-01T06:47:30;1.20;99.90
20512;DHT22;10414;52.074;5.126;2023-03-01T06:49:58;1.20;99.90
20512;DHT22;10414;52.074;5.126;2023-03-01T06:52:25;1.20;99.90
20512;DHT22;10414;52.074;5.126;2023-03-01T06:54:53;1.30;99.90
20512;DHT22;10414;52.074;5.126;2023-03-01T06:57:19;1.30;99.90
20512;DHT22;10414;52.074;5.126;2023-03-01T06:59:48;1.50;99.90
20512;DHT22;10414;52.074;5.126;2023-03-01T07:02:15;1.50;99.90
20512;DHT22;10414;52.074;5.126;2023-03-01T07:04:42;1.40;99.90
20512;DHT22;10414;52.074;5.126;2023-03-01T07:07:10;1.50;99.90
20512;DHT22;10414;52.074;5.126;2023-03-01T07:09:37;1.70;99.90
20512;DHT22;10414;52.074;5.126;2023-03-01T07:12:04;1.90;99.90
20512;DHT22;10414;52.074;5.126;2023-03-01T07:14:31;2.00;99.90
20512;DHT22;10414;52.074;5.126;2023-03-01T07:16:59;2.20;99.90
20512;DHT22;10414;52.074;5.126;2023-03-01T07:19:26;2.20;99.90
20512;DHT22;10414;52.074;5.126;2023-03-01T07:21:54;2.50;99.90
20512;DHT22;10414;52.074;5.126;2023-03-01T07:24:21;3.60;99.90
20512;DHT22;10414;52.074;5.126;2023-03-01T07:26:49;5.50;99.90
20512;DHT22;10414;52.074;5.126;2023-03-01T07:29:16;7.80;99.90
20512;DHT22;10414;52.074;5.126;2023-03-01T07:31:43;9.20;99.90
20512;DHT22;10414;52.074;5.126;2023-03-01T07:34:12;10.60;99.20
20512;DHT22;10414;52.074;5.126;2023-03-01T07:36:39;10.90;99.00
20512;DHT22;10414;52.074;5.126;2023-03-01T07:39:09;12.80;96.60
20512;DHT22;10414;52.074;5.126;2023-03-01T07:41:36;12.70;95.50
20512;DHT22;10414;52.074;5.126;2023-03-01T07:44:03;13.50;92.80
20512;DHT22;10414;52.074;5.126;2023-03-01T07:46:30;13.30;93.60
20512;DHT22;10414;52.074;5.126;2023-03-01T07:48:57;13.10;92.50
20512;DHT22;10414;52.074;5.126;2023-03-01T07:51:25;12.80;92.90
20512;DHT22;10414;52.074;5.126;2023-03-01T07:53:52;12.80;92.50
20512;DHT22;10414;52.074;5.126;2023-03-01T07:56:19;12.50;93.50
20512;DHT22;10414;52.074;5.126;2023-03-01T07:58:47;12.60;92.60
20512;DHT22;10414;52.074;5.126;2023-03-01T08:01:16;12.60;93.70
20512;DHT22;10414;52.074;5.126;2023-03-01T08:03:44;12.50;92.70
20512;DHT22;10414;52.074;5.126;2023-03-01T08:06:13;12.60;92.80
20512;DHT22;10414;52.074;5.126;2023-03-01T08:08:42;11.50;94.20
20512;DHT22;10414;52.074;5.126;2023-03-01T08:11:11;13.10;93.20
20512;DHT22;10414;52.074;5.126;2023-03-01T08:13:38;14.10;91.20
20512;DHT22;10414;52.074;5.126;2023-03-01T08:16:09;14.90;89.30
20512;DHT22;10414;52.074;5.126;2023-03-01T08:18:36;13.80;90.20
20512;DHT22;10414;52.074;5.126;2023-03-01T08:21:04;13.40;90.90
20512;DHT22;10414;52.074;5.126;2023-03-01T08:23:31;14.10;90.20
20512;DHT22;10414;52.074;5.126;2023-03-01T08:26:07;14.30;90.20
20512;DHT22;10414;52.074;5.126;2023-03-01T08:28:34;14.40;89.20
20512;DHT22;10414;52.074;5.126;2023-03-01T08:31:01;15.30;86.60
20512;DHT22;10414;52.074;5.126;2023-03-01T08:33:29;14.60;87.40
20512;DHT22;10414;52.074;5.126;2023-03-01T08:36:03;15.80;85.10
20512;DHT22;10414;52.074;5.126;2023-03-01T08:38:32;16.90;80.70
20512;DHT22;10414;52.074;5.126;2023-03-01T08:41:00;18.60;77.80
20512;DHT22;10414;52.074;5.126;2023-03-01T08:43:29;18.00;73.20
20512;DHT22;10414;52.074;5.126;2023-03-01T08:45:56;18.50;74.20
20512;DHT22;10414;52.074;5.126;2023-03-01T08:48:23;17.70;72.00
20512;DHT22;10414;52.074;5.126;2023-03-01T08:50:50;18.00;70.80
20512;DHT22;10414;52.074;5.126;2023-03-01T08:53:17;19.00;71.80
20512;DHT22;10414;52.074;5.126;2023-03-01T08:55:44;18.00;70.80
20512;DHT22;10414;52.074;5.126;2023-03-01T08:58:11;17.00;70.90
20512;DHT22;10414;52.074;5.126;2023-03-01T09:00:39;16.50;70.90
20512;DHT22;10414;52.074;5.126;2023-03-01T09:03:06;15.80;73.90
20512;DHT22;10414;52.074;5.126;2023-03-01T09:05:34;15.10;76.00
20512;DHT22;10414;52.074;5.126;2023-03-01T09:08:02;16.60;73.70
20512;DHT22;10414;52.074;5.126;2023-03-01T09:10:29;18.60;70.80
20512;DHT22;10414;52.074;5.126;2023-03-01T09:12:56;18.10;68.80
20512;DHT22;10414;52.074;5.126;2023-03-01T09:15:23;18.60;68.80
20512;DHT22;10414;52.074;5.126;2023-03-01T09:17:51;19.10;68.00
20512;DHT22;10414;52.074;5.126;2023-03-01T09:20:18;18.80;67.90
20512;DHT22;10414;52.074;5.126;2023-03-01T09:22:45;19.20;66.50
20512;DHT22;10414;52.074;5.126;2023-03-01T09:25:12;19.70;66.20
20512;DHT22;10414;52.074;5.126;2023-03-01T09:27:39;20.60;65.50
20512;DHT22;10414;52.074;5.126;2023-03-01T09:30:07;20.30;64.40
20512;DHT22;10414;52.074;5.126;2023-03-01T09:32:34;17.60;65.90
20512;DHT22;10414;52.074;5.126;2023-03-01T09:35:03;16.60;68.40
20512;DHT22;10414;52.074;5.126;2023-03-01T09:37:31;14.60;71.60
20512;DHT22;10414;52.074;5.126;2023-03-01T09:39:59;16.00;69.60
20512;DHT22;10414;52.074;5.126;2023-03-01T09:42:26;14.60;72.20
20512;DHT22;10414;52.074;5.126;2023-03-01T09:44:57;14.00;72.60
20512;DHT22;10414;52.074;5.126;2023-03-01T09:47:29;14.70;72.60
20512;DHT22;10414;52.074;5.126;2023-03-01T09:50:04;13.40;76.50
20512;DHT22;10414;52.074;5.126;2023-03-01T09:52:38;12.80;78.00
20512;DHT22;10414;52.074;5.126;2023-03-01T09:55:10;14.50;74.30
20512;DHT22;10414;52.074;5.126;2023-03-01T09:57:43;14.50;71.90
20512;DHT22;10414;52.074;5.126;2023-03-01T10:00:26;13.70;73.30
20512;DHT22;10414;52.074;5.126;2023-03-01T10:02:59;14.70;71.20
20512;DHT22;10414;52.074;5.126;2023-03-01T10:05:36;14.20;72.10
20512;DHT22;10414;52.074;5.126;2023-03-01T10:08:27;15.00;70.30
20512;DHT22;10414;52.074;5.126;2023-03-01T10:10:57;13.20;73.60
20512;DHT22;10414;52.074;5.126;2023-03-01T10:13:31;14.20;71.50
20512;DHT22;10414;52.074;5.126;2023-03-01T10:16:03;13.00;74.40
20512;DHT22;10414;52.074;5.126;2023-03-01T10:18:33;13.70;73.10
20512;DHT22;10414;52.074;5.126;2023-03-01T10:21:13;14.90;70.70
20512;DHT22;10414;52.074;5.126;2023-03-01T10:23:40;14.70;70.20
20512;DHT22;10414;52.074;5.126;2023-03-01T10:26:21;13.60;73.10
20512;DHT22;10414;52.074;5.126;2023-03-01T10:28:59;14.30;72.40
20512;DHT22;10414;52.074;5.126;2023-03-01T10:31:39;14.90;70.70
20512;DHT22;10414;52.074;5.126;2023-03-01T10:34:11;14.10;73.30
20512;DHT22;10414;52.074;5.126;2023-03-01T10:36:40;13.30;73.00
20512;DHT22;10414;52.074;5.126;2023-03-01T10:39:13;12.90;76.80
20512;DHT22;10414;52.074;5.126;2023-03-01T10:41:53;13.00;75.60
20512;DHT22;10414;52.074;5.126;2023-03-01T10:44:42;14.00;74.80
20512;DHT22;10414;52.074;5.126;2023-03-01T10:47:19;13.80;71.00
20512;DHT22;10414;52.074;5.126;2023-03-01T10:49:55;13.50;73.00
20512;DHT22;10414;52.074;5.126;2023-03-01T10:52:27;12.50;74.80
20512;DHT22;10414;52.074;5.126;2023-03-01T10:54:56;11.40;76.90
20512;DHT22;10414;52.074;5.126;2023-03-01T10:57:30;11.40;78.40
20512;DHT22;10414;52.074;5.126;2023-03-01T11:00:18;12.00;77.60
20512;DHT22;10414;52.074;5.126;2023-03-01T11:02:48;11.60;79.10
20512;DHT22;10414;52.074;5.126;2023-03-01T11:05:17;12.50;77.10
20512;DHT22;10414;52.074;5.126;2023-03-01T11:07:50;12.30;77.30
20512;DHT22;10414;52.074;5.126;2023-03-01T11:10:18;12.20;77.10
20512;DHT22;10414;52.074;5.126;2023-03-01T11:12:45;12.20;76.30
20512;DHT22;10414;52.074;5.126;2023-03-01T11:15:21;12.00;75.60
20512;DHT22;10414;52.074;5.126;2023-03-01T11:17:49;11.20;77.60
20512;DHT22;10414;52.074;5.126;2023-03-01T11:20:25;10.80;80.80
20512;DHT22;10414;52.074;5.126;2023-03-01T11:22:55;10.10;82.60
20512;DHT22;10414;52.074;5.126;2023-03-01T11:25:26;10.20;83.80
20512;DHT22;10414;52.074;5.126;2023-03-01T11:27:54;10.70;83.30
20512;DHT22;10414;52.074;5.126;2023-03-01T11:30:25;10.60;84.80
20512;DHT22;10414;52.074;5.126;2023-03-01T11:33:04;10.70;86.10
20512;DHT22;10414;52.074;5.126;2023-03-01T11:35:32;10.90;82.90
20512;DHT22;10414;52.074;5.126;2023-03-01T11:38:14;10.00;82.10
20512;DHT22;10414;52.074;5.126;2023-03-01T11:40:46;9.30;86.00
20512;DHT22;10414;52.074;5.126;2023-03-01T11:43:19;9.20;84.80
20512;DHT22;10414;52.074;5.126;2023-03-01T11:46:06;9.10;84.60
20512;DHT22;10414;52.074;5.126;2023-03-01T11:48:53;8.90;85.90
20512;DHT22;10414;52.074;5.126;2023-03-01T11:51:28;8.90;87.00
20512;DHT22;10414;52.074;5.126;2023-03-01T11:54:13;9.30;87.10
20512;DHT22;10414;52.074;5.126;2023-03-01T11:56:48;9.50;84.40
20512;DHT22;10414;52.074;5.126;2023-03-01T12:00:04;9.80;85.10
20512;DHT22;10414;52.074;5.126;2023-03-01T12:06:07;9.00;83.40
20512;DHT22;10414;52.074;5.126;2023-03-01T12:08:42;9.00;84.90
20512;DHT22;10414;52.074;5.126;2023-03-01T12:11:22;9.00;87.30
20512;DHT22;10414;52.074;5.126;2023-03-01T12:14:13;8.80;87.60
20512;DHT22;10414;52.074;5.126;2023-03-01T12:16:59;8.50;88.80
20512;DHT22;10414;52.074;5.126;2023-03-01T12:19:44;8.10;88.40
20512;DHT22;10414;52.074;5.126;2023-03-01T12:22:24;8.00;89.10
20512;DHT22;10414;52.074;5.126;2023-03-01T12:25:15;7.80;89.60
20512;DHT22;10414;52.074;5.126;2023-03-01T12:30:42;7.70;89.20
20512;DHT22;10414;52.074;5.126;2023-03-01T12:33:20;7.70;89.50
20512;DHT22;10414;52.074;5.126;2023-03-01T12:36:05;7.80;89.10
20512;DHT22;10414;52.074;5.126;2023-03-01T12:38:41;7.80;89.60
20512;DHT22;10414;52.074;5.126;2023-03-01T12:41:27;7.80;90.20
20512;DHT22;10414;52.074;5.126;2023-03-01T12:44:10;7.90;90.40
20512;DHT22;10414;52.074;5.126;2023-03-01T12:46:47;7.90;89.50
20512;DHT22;10414;52.074;5.126;2023-03-01T12:49:21;7.90;89.40
20512;DHT22;10414;52.074;5.126;2023-03-01T12:51:54;7.90;88.50
20512;DHT22;10414;52.074;5.126;2023-03-01T12:54:26;7.90;89.30
20512;DHT22;10414;52.074;5.126;2023-03-01T12:56:55;8.00;88.80
20512;DHT22;10414;52.074;5.126;2023-03-01T12:59:30;8.00;88.80
20512;DHT22;10414;52.074;5.126;2023-03-01T13:02:04;7.70;89.30
20512;DHT22;10414;52.074;5.126;2023-03-01T13:05:00;8.00;90.10
20512;DHT22;10414;52.074;5.126;2023-03-01T13:07:36;8.00;88.60
20512;DHT22;10414;52.074;5.126;2023-03-01T13:10:17;8.10;87.80
20512;DHT22;10414;52.074;5.126;2023-03-01T13:13:00;8.10;87.20
20512;DHT22;10414;52.074;5.126;2023-03-01T13:15:31;8.20;87.20
20512;DHT22;10414;52.074;5.126;2023-03-01T13:18:00;8.00;87.40
20512;DHT22;10414;52.074;5.126;2023-03-01T13:20:31;8.10;87.00
20512;DHT22;10414;52.074;5.126;2023-03-01T13:23:06;8.00;87.20
20512;DHT22;10414;52.074;5.126;2023-03-01T13:25:33;8.10;89.10
20512;DHT22;10414;52.074;5.126;2023-03-01T13:28:35;8.10;87.70
20512;DHT22;10414;52.074;5.126;2023-03-01T13:31:06;8.30;88.60
20512;DHT22;10414;52.074;5.126;2023-03-01T13:33:44;8.40;85.50
20512;DHT22;10414;52.074;5.126;2023-03-01T13:36:45;8.30;86.70
20512;DHT22;10414;52.074;5.126;2023-03-01T13:39:04;8.00;88.30
20512;DHT22;10414;52.074;5.126;2023-03-01T13:41:51;8.20;89.20
20512;DHT22;10414;52.074;5.126;2023-03-01T13:44:24;8.30;88.10
20512;DHT22;10414;52.074;5.126;2023-03-01T13:46:56;8.30;88.80
20512;DHT22;10414;52.074;5.126;2023-03-01T13:49:27;8.50;88.40
20512;DHT22;10414;52.074;5.126;2023-03-01T13:51:55;8.30;85.60
20512;DHT22;10414;52.074;5.126;2023-03-01T13:54:26;8.20;86.50
20512;DHT22;10414;52.074;5.126;2023-03-01T13:56:56;8.30;87.50
20512;DHT22;10414;52.074;5.126;2023-03-01T13:59:23;8.20;88.20
20512;DHT22;10414;52.074;5.126;2023-03-01T14:01:58;8.20;88.90
20512;DHT22;10414;52.074;5.126;2023-03-01T14:04:27;8.30;89.40
20512;DHT22;10414;52.074;5.126;2023-03-01T14:07:10;8.50;88.60
20512;DHT22;10414;52.074;5.126;2023-03-01T14:09:39;8.50;87.60
20512;DHT22;10414;52.074;5.126;2023-03-01T14:14:56;8.30;87.70
20512;DHT22;10414;52.074;5.126;2023-03-01T14:17:41;8.20;85.90
20512;DHT22;10414;52.074;5.126;2023-03-01T14:20:14;8.20;86.80
20512;DHT22;10414;52.074;5.126;2023-03-01T14:22:43;8.30;85.70
20512;DHT22;10414;52.074;5.126;2023-03-01T14:25:21;8.40;85.90
20512;DHT22;10414;52.074;5.126;2023-03-01T14:27:57;8.50;84.40
20512;DHT22;10414;52.074;5.126;2023-03-01T14:30:26;8.60;83.70
20512;DHT22;10414;52.074;5.126;2023-03-01T14:32:57;8.50;83.80
20512;DHT22;10414;52.074;5.126;2023-03-01T14:35:27;8.40;84.40
20512;DHT22;10414;52.074;5.126;2023-03-01T14:37:54;8.40;86.00
20512;DHT22;10414;52.074;5.126;2023-03-01T14:40:26;8.40;86.20
20512;DHT22;10414;52.074;5.126;2023-03-01T14:42:55;8.60;86.40
20512;DHT22;10414;52.074;5.126;2023-03-01T14:45:25;8.50;87.40
20512;DHT22;10414;52.074;5.126;2023-03-01T14:47:52;8.60;86.70
20512;DHT22;10414;52.074;5.126;2023-03-01T14:50:24;8.70;86.90
20512;DHT22;10414;52.074;5.126;2023-03-01T14:52:55;8.50;88.00
20512;DHT22;10414;52.074;5.126;2023-03-01T14:55:26;8.60;87.40
20512;DHT22;10414;52.074;5.126;2023-03-01T14:57:57;8.50;87.80
20512;DHT22;10414;52.074;5.126;2023-03-01T15:00:26;8.60;87.40
20512;DHT22;10414;52.074;5.126;2023-03-01T15:02:56;8.40;85.90
20512;DHT22;10414;52.074;5.126;2023-03-01T15:05:30;8.20;87.00
20512;DHT22;10414;52.074;5.126;2023-03-01T15:08:00;8.20;87.20
20512;DHT22;10414;52.074;5.126;2023-03-01T15:10:30;8.20;87.20
20512;DHT22;10414;52.074;5.126;2023-03-01T15:13:10;8.20;87.20
20512;DHT22;10414;52.074;5.126;2023-03-01T15:15:40;8.20;87.90
20512;DHT22;10414;52.074;5.126;2023-03-01T15:18:18;8.30;88.50
20512;DHT22;10414;52.074;5.126;2023-03-01T15:20:47;8.30;88.30
20512;DHT22;10414;52.074;5.126;2023-03-01T15:23:23;8.40;88.80
20512;DHT22;10414;52.074;5.126;2023-03-01T15:25:51;8.40;88.30
20512;DHT22;10414;52.074;5.126;2023-03-01T15:28:24;8.40;88.40
20512;DHT22;10414;52.074;5.126;2023-03-01T15:30:55;8.20;88.00
20512;DHT22;10414;52.074;5.126;2023-03-01T15:33:30;8.30;88.40
20512;DHT22;10414;52.074;5.126;2023-03-01T15:35:59;8.30;88.60
20512;DHT22;10414;52.074;5.126;2023-03-01T15:38:31;8.20;89.30
20512;DHT22;10414;52.074;5.126;2023-03-01T15:40:59;8.30;89.20
20512;DHT22;10414;52.074;5.126;2023-03-01T15:43:46;8.20;88.50
20512;DHT22;10414;52.074;5.126;2023-03-01T15:46:21;8.10;89.20
20512;DHT22;10414;52.074;5.126;2023-03-01T15:48:52;8.20;88.80
20512;DHT22;10414;52.074;5.126;2023-03-01T15:51:28;8.30;89.10
20512;DHT22;10414;52.074;5.126;2023-03-01T15:53:57;8.20;87.50
20512;DHT22;10414;52.074;5.126;2023-03-01T15:56:25;8.10;87.90
20512;DHT22;10414;52.074;5.126;2023-03-01T15:58:51;8.00;88.20
20512;DHT22;10414;52.074;5.126;2023-03-01T16:01:18;7.90;87.90
20512;DHT22;10414;52.074;5.126;2023-03-01T16:03:45;7.90;88.90
20512;DHT22;10414;52.074;5.126;2023-03-01T16:06:12;7.90;89.60
20512;DHT22;10414;52.074;5.126;2023-03-01T16:08:41;7.90;89.40
20512;DHT22;10414;52.074;5.126;2023-03-01T16:11:14;7.80;89.70
20512;DHT22;10414;52.074;5.126;2023-03-01T16:13:42;7.90;89.80